Date,TemperatureHighF,TemperatureAvgF,TemperatureLowF,DewpointHighF,DewpointAvgF,DewpointLowF,HumidityHigh,HumidityAvg,HumidityLow,PressureMaxIn,PressureMinIn,WindSpeedMaxMPH,WindSpeedAvgMPH,GustSpeedMaxMPH,PrecipitationSumIn
2013-1-1,37.4,29.3,15.5,26.0,18.9,8.0,78,66,54,29.97,29.76,5,1,14,0.00
2013-1-2,29.2,19.2,9.6,19.0,11.0,2.0,85,71,54,30.20,29.95,4,1,9,0.00
2013-1-3,17.4,9.5,0.5,11.0,1.6,-5.0,78,70,60,30.24,29.98,2,0,5,0.00
2013-1-4,38.8,26.8,17.0,26.0,19.6,11.0,88,75,55,29.98,29.83,4,0,6,0.00
2013-1-5,37.8,32.4,21.1,26.0,22.3,17.0,86,67,54,30.23,29.92,5,1,11,0.00
2013-1-6,41.7,30.9,21.8,29.0,25.1,19.0,91,80,58,30.17,29.89,3,0,5,0.00
2013-1-7,34.6,28.4,18.6,29.0,22.6,15.0,91,79,66,30.37,29.98,9,0,9,0.00
2013-1-8,43.2,30.0,20.1,29.0,24.2,18.0,90,80,56,30.36,30.25,3,0,8,0.00
2013-1-9,45.5,30.4,17.3,32.0,24.7,15.0,93,81,46,30.35,29.99,10,1,16,0.00
2013-1-10,45.2,39.0,30.6,28.0,24.7,23.0,75,57,46,30.54,30.13,10,1,21,0.00
2013-1-11,35.7,31.0,24.4,34.0,26.9,21.0,95,85,71,30.52,30.09,3,0,6,0.05
2013-1-12,43.1,37.6,34.1,42.0,36.4,33.0,97,95,92,30.14,30.07,3,0,4,0.01
2013-1-13,43.8,39.4,34.6,43.0,38.6,34.0,98,97,96,30.11,29.93,3,0,8,0.01
2013-1-14,48.7,41.7,34.8,47.0,36.1,24.0,99,82,59,30.29,29.82,3,1,7,0.04
2013-1-15,38.9,34.0,31.2,26.0,23.5,22.0,73,66,55,30.34,30.21,4,0,7,0.00
2013-1-16,31.7,30.5,27.9,31.0,27.8,23.0,95,90,71,30.20,29.81,2,0,3,0.41
2013-1-17,40.2,31.1,24.6,34.0,24.8,12.0,96,79,60,30.13,29.84,5,0,7,0.00
2013-1-18,26.7,21.3,16.9,12.0,7.0,-2.0,69,55,41,30.41,30.07,5,1,8,0.00
2013-1-19,43.8,33.4,22.9,28.0,21.3,12.0,71,62,49,30.25,29.77,7,2,11,0.00
2013-1-20,48.1,36.7,26.0,33.0,22.0,8.0,76,57,24,30.00,29.57,9,1,14,0.00
2013-1-21,27.2,22.9,17.1,17.0,14.0,9.0,87,70,51,30.05,29.78,3,0,7,0.00
2013-1-22,21.2,16.4,10.3,17.0,-1.0,-8.0,84,48,32,30.13,29.77,9,2,18,0.00
2013-1-23,16.5,9.6,3.2,1.0,-4.1,-6.0,77,55,39,30.19,30.11,6,1,10,0.00
2013-1-24,19.8,10.0,1.3,3.0,-2.9,-8.0,78,59,32,30.33,30.14,10,2,16,0.00
2013-1-25,19.1,14.4,7.6,12.0,4.1,0.0,85,64,50,30.39,30.06,4,0,10,0.00
2013-1-26,24.7,15.6,9.5,11.0,6.2,2.0,86,68,40,30.32,30.04,6,1,16,0.01
2013-1-27,33.4,20.1,7.5,11.0,4.0,1.0,85,54,25,30.48,30.32,6,0,11,0.00
2013-1-28,31.5,24.4,16.2,30.0,18.7,6.0,94,79,60,30.46,29.92,4,0,6,0.00
2013-1-29,39.0,33.6,29.3,35.0,31.3,28.0,95,91,82,30.12,29.94,3,0,6,0.10
2013-1-30,50.7,43.9,36.4,51.0,43.2,35.0,99,97,95,30.01,29.30,5,1,10,0.33
2013-1-31,50.8,41.3,29.2,51.0,29.0,8.0,99,65,37,29.65,28.90,15,2,16,0.80
2013-2-1,29.6,25.7,21.6,16.0,8.7,4.0,69,49,41,30.12,29.65,6,2,14,0.00
2013-2-2,28.7,24.7,21.1,16.0,11.6,7.0,79,59,42,30.07,30.00,6,1,11,0.00
2013-2-3,31.0,22.9,16.1,18.0,14.8,10.0,89,72,46,30.02,29.75,2,0,5,0.00
2013-2-4,27.9,23.2,19.1,18.0,10.2,4.0,84,59,39,29.93,29.75,7,1,15,0.00
2013-2-5,29.6,23.9,18.8,23.0,14.9,11.0,86,69,52,29.99,29.86,2,0,4,0.00
2013-2-6,37.2,28.1,21.8,26.0,15.7,0.0,92,64,30,30.35,29.87,5,1,11,0.00
2013-2-7,30.3,22.8,15.6,13.0,7.5,5.0,68,53,37,30.51,30.34,2,0,3,0.00
2013-2-8,30.3,27.0,23.8,28.0,21.3,14.0,94,80,58,30.34,29.76,4,0,7,0.01
2013-2-9,27.4,22.2,12.5,22.0,13.1,3.0,93,70,44,30.33,29.80,9,2,14,0.00
2013-2-10,29.0,15.4,1.8,12.0,5.7,-4.0,84,67,42,30.49,30.25,4,0,4,0.18
2013-2-11,39.3,32.6,17.6,36.0,29.1,13.0,95,87,68,30.24,29.63,5,0,7,0.27
2013-2-12,41.0,37.5,34.6,34.0,27.2,21.0,93,67,56,29.92,29.66,7,1,12,0.00
2013-2-13,42.2,35.6,30.1,26.0,23.5,21.0,78,62,48,29.89,29.69,3,0,5,0.00
2013-2-14,42.5,33.5,24.2,27.0,23.3,19.0,84,67,49,29.92,29.69,4,0,7,0.00
2013-2-15,52.2,39.4,31.7,32.0,27.7,25.0,83,65,44,29.98,29.84,3,0,6,0.00
2013-2-16,34.4,30.0,25.9,29.0,20.9,11.0,93,70,51,29.98,29.79,6,1,8,0.03
2013-2-17,26.6,21.5,15.8,11.0,4.3,0.0,58,48,33,29.91,29.65,9,3,20,0.01
2013-2-18,33.4,22.0,14.2,12.0,4.5,0.0,68,48,30,30.18,29.92,7,1,14,0.00
2013-2-19,39.4,29.0,17.5,32.0,22.2,11.0,95,77,54,30.13,29.59,3,0,8,0.10
2013-2-20,33.0,28.6,24.2,32.0,14.6,7.0,94,58,40,29.90,29.63,8,2,16,0.00
2013-2-21,28.6,24.7,21.5,15.0,11.5,10.0,71,58,50,30.34,29.88,10,3,20,0.00
2013-2-22,36.3,29.3,22.6,25.0,19.9,15.0,77,68,56,30.40,30.22,5,1,7,0.00
2013-2-23,36.2,33.7,30.8,35.0,31.4,26.0,95,91,75,30.22,29.84,3,0,6,0.07
2013-2-24,41.0,34.8,32.0,37.0,30.3,23.0,97,84,61,29.95,29.72,5,1,10,0.05
2013-2-25,45.3,35.3,26.7,30.0,26.3,23.0,89,71,51,30.21,29.95,4,0,8,0.00
2013-2-26,45.8,34.7,24.5,30.0,26.3,22.0,92,73,50,30.28,30.01,3,0,6,0.00
2013-2-27,40.9,35.7,31.4,39.0,33.7,28.0,95,92,78,29.98,29.50,2,0,6,1.01
2013-2-28,42.3,37.1,34.1,38.0,35.0,32.0,97,92,83,29.58,29.52,2,0,6,0.17
2013-3-1,42.7,37.2,33.3,32.0,29.7,25.0,84,75,59,29.74,29.57,6,1,13,0.00
2013-3-2,37.0,32.3,27.4,25.0,23.2,20.0,74,69,59,29.75,29.68,5,2,11,0.00
2013-3-3,33.3,28.3,24.3,23.0,17.9,14.0,71,65,59,29.74,29.66,6,2,16,0.00
2013-3-4,36.9,30.7,26.9,22.0,20.1,17.0,74,65,53,29.88,29.72,9,2,15,0.00
2013-3-5,45.3,35.5,30.8,27.0,24.7,22.0,77,66,49,30.04,29.88,4,1,11,0.00
2013-3-6,43.2,36.2,30.1,33.0,27.8,25.0,85,72,59,30.07,29.97,3,1,7,0.00
2013-3-7,38.4,34.4,30.3,31.0,27.3,24.0,95,76,57,30.11,30.03,4,1,9,0.14
2013-3-8,38.5,32.7,29.3,34.0,29.7,27.0,94,89,74,30.25,30.04,3,1,5,0.38
2013-3-9,50.0,36.7,27.3,29.0,25.0,22.0,81,65,39,30.30,30.23,3,0,4,0.00
2013-3-10,54.7,38.7,23.1,34.0,27.8,21.0,93,68,39,30.34,30.18,4,0,9,0.00
2013-3-11,49.0,42.0,35.1,42.0,36.6,31.0,88,81,72,30.21,29.99,6,1,10,0.00
2013-3-12,51.9,46.9,40.0,51.0,44.7,35.0,98,92,82,29.99,29.63,5,1,15,1.64
2013-3-13,47.9,38.8,31.0,35.0,28.1,22.0,88,68,39,29.84,29.74,4,1,9,0.00
2013-3-14,34.1,29.2,25.0,26.0,13.6,9.0,74,52,46,29.89,29.81,11,2,15,0.00
2013-3-15,38.9,31.1,21.5,30.0,19.2,10.0,80,62,44,29.92,29.65,7,1,13,0.00
2013-3-16,39.7,32.3,25.4,29.0,17.5,13.0,80,56,40,29.89,29.74,3,0,8,0.00
2013-3-17,37.4,29.3,22.2,18.0,11.2,6.0,69,49,30,30.31,29.90,8,1,12,0.00
2013-3-18,35.5,27.3,17.9,25.0,12.4,5.0,89,56,33,30.42,30.06,3,0,6,0.11
2013-3-19,36.5,32.2,27.9,34.0,29.9,25.0,94,91,78,30.05,29.67,2,0,5,0.23
2013-3-20,39.9,31.8,25.4,25.0,20.4,16.0,88,65,40,29.80,29.73,7,1,14,0.06
2013-3-21,39.8,29.4,20.6,22.0,16.5,12.0,89,62,39,29.80,29.61,5,0,7,0.00
2013-3-22,38.4,29.7,20.8,24.0,19.0,14.0,82,66,48,29.80,29.67,3,0,9,0.00
2013-3-23,44.0,35.9,30.5,25.0,21.5,17.0,81,58,37,29.87,29.76,7,2,14,0.00
2013-3-24,46.1,36.8,28.9,25.0,22.2,20.0,71,57,42,29.89,29.71,3,1,7,0.00
2013-3-25,47.9,37.8,30.1,28.0,25.4,23.0,76,62,44,29.73,29.47,5,0,6,0.00
2013-3-26,47.2,39.7,35.0,35.0,26.9,21.0,78,61,40,29.82,29.58,5,0,7,0.00
2013-3-27,51.9,39.2,25.4,29.0,23.4,20.0,86,56,31,29.92,29.81,5,1,13,0.00
2013-3-28,47.0,42.0,36.8,34.0,30.8,27.0,74,65,58,30.06,29.91,6,1,9,0.00
2013-3-29,51.3,42.3,30.9,32.0,28.7,25.0,84,60,44,30.10,30.02,5,1,9,0.00
2013-3-30,58.0,43.8,30.0,33.0,26.0,20.0,89,54,24,30.13,30.02,6,1,10,0.00
2013-3-31,55.2,40.0,26.3,40.0,29.8,22.0,91,69,38,30.09,29.67,3,0,10,0.15
2013-4-1,54.1,42.2,32.1,45.0,33.1,15.0,96,73,38,29.86,29.54,8,1,18,0.01
2013-4-2,40.0,33.0,26.5,18.0,13.3,9.0,68,46,29,30.01,29.85,11,2,18,0.00
2013-4-3,43.3,34.4,29.5,17.0,15.0,13.0,61,46,32,30.25,29.99,10,2,13,0.00
2013-4-4,57.4,40.7,26.4,27.0,19.6,15.0,71,45,25,30.34,29.96,5,1,10,0.00
2013-4-5,58.2,44.9,35.8,27.0,23.1,20.0,61,44,24,29.97,29.72,6,1,12,0.00
2013-4-6,50.6,38.0,29.7,25.0,13.9,6.0,64,40,18,30.27,29.97,7,1,12,0.00
2013-4-7,62.7,48.0,30.0,41.0,30.4,19.0,77,53,27,30.23,29.89,7,2,12,0.00
2013-4-8,63.0,50.4,38.0,41.0,37.7,35.0,90,65,39,30.07,29.93,3,0,6,0.00
2013-4-9,69.8,57.9,47.4,50.0,44.1,39.0,87,62,39,29.97,29.82,4,1,11,0.00
2013-4-10,61.4,53.4,47.7,51.0,48.5,42.0,96,84,63,29.98,29.78,4,0,6,0.32
2013-4-11,48.3,42.9,33.8,46.0,34.0,24.0,94,73,44,30.11,29.85,5,1,8,0.10
2013-4-12,40.4,36.8,33.3,39.0,35.1,31.0,96,93,90,30.10,29.74,2,0,4,0.52
2013-4-13,52.2,43.5,37.0,41.0,37.5,35.0,95,81,57,29.90,29.78,3,0,4,0.02
2013-4-14,49.6,42.5,34.9,38.0,31.8,26.0,94,68,42,30.21,29.90,5,1,10,0.01
2013-4-15,63.0,45.6,31.3,39.0,32.1,27.0,85,62,37,30.34,30.19,4,0,8,0.00
2013-4-16,60.8,51.7,41.6,56.0,43.8,31.0,89,75,63,30.30,30.02,6,1,10,0.09
2013-4-17,65.5,54.6,46.1,53.0,37.8,31.0,92,57,31,30.28,30.08,7,1,12,0.04
2013-4-18,63.9,50.8,36.2,47.0,38.7,33.0,89,66,40,30.32,30.04,8,1,14,0.00
2013-4-19,71.1,60.9,48.8,62.0,56.4,46.0,96,85,73,30.03,29.51,7,1,17,0.38
2013-4-20,57.0,47.1,38.3,45.0,34.0,20.0,94,65,34,30.30,29.68,5,1,12,0.24
2013-4-21,52.8,41.3,32.3,28.0,22.0,18.0,71,48,30,30.61,30.31,5,1,13,0.00
2013-4-22,62.9,45.9,31.5,33.0,26.9,23.0,77,52,24,30.67,30.45,3,0,7,0.00
2013-4-23,52.1,43.2,32.5,40.0,33.9,27.0,83,70,61,30.50,30.11,2,0,5,0.00
2013-4-24,75.2,53.4,33.5,51.0,42.4,31.0,94,70,41,30.11,29.68,4,1,8,0.00
2013-4-25,61.7,51.5,41.4,52.0,34.0,26.0,92,54,27,30.23,29.73,6,1,11,0.09
2013-4-26,61.0,48.0,34.1,38.0,32.3,29.0,84,57,34,30.41,30.24,4,0,7,0.00
2013-4-27,69.3,50.6,32.6,37.0,32.9,29.0,86,55,26,30.42,30.24,2,0,3,0.00
2013-4-28,74.6,56.1,37.7,43.0,37.6,33.0,88,54,25,30.28,30.08,5,1,7,0.00
2013-4-29,57.6,53.7,50.4,51.0,44.4,33.0,93,72,46,30.19,30.15,6,0,8,0.07
2013-4-30,73.7,58.5,48.3,49.0,43.4,34.0,95,63,26,30.27,30.18,3,0,8,0.03
2013-5-1,78.0,59.0,41.5,42.0,35.3,30.0,81,46,18,30.42,30.27,4,1,6,0.00
2013-5-2,81.5,62.5,42.8,48.0,42.2,37.0,90,53,22,30.42,30.22,3,0,4,0.00
2013-5-3,75.1,61.0,47.9,43.0,37.4,32.0,66,44,22,30.45,30.27,4,0,6,0.00
2013-5-4,78.4,60.4,43.2,49.0,43.1,36.0,88,58,27,30.32,30.12,3,0,6,0.00
2013-5-5,75.4,57.8,42.8,45.0,39.2,32.0,89,56,22,30.27,30.10,3,0,5,0.00
2013-5-6,74.7,57.6,42.1,51.0,44.3,39.0,90,65,32,30.23,30.05,3,1,8,0.00
2013-5-7,81.0,64.1,48.2,55.0,51.6,45.0,91,67,34,30.13,29.99,3,0,6,0.00
2013-5-8,66.4,62.1,56.2,64.0,58.7,53.0,94,88,81,30.09,29.93,2,0,3,0.11
2013-5-9,70.0,59.7,51.5,60.0,54.6,50.0,95,84,62,29.97,29.83,2,0,6,0.00
2013-5-10,78.9,63.9,53.1,59.0,55.2,52.0,96,76,42,29.95,29.80,2,0,5,0.00
2013-5-11,68.1,63.5,57.9,65.0,60.3,53.0,95,89,76,29.80,29.63,2,0,9,0.38
2013-5-12,62.4,54.9,47.2,53.0,43.4,26.0,92,69,30,29.84,29.63,7,0,11,0.13
2013-5-13,52.3,46.8,38.0,33.0,28.9,25.0,77,51,42,30.06,29.84,4,1,10,0.00
2013-5-14,61.2,47.0,33.7,35.0,30.6,26.0,91,59,27,30.09,29.97,4,0,10,0.00
2013-5-15,67.7,49.8,34.2,54.0,42.0,31.0,89,76,54,30.02,29.58,3,0,10,0.03
2013-5-16,83.3,66.1,48.2,55.0,43.7,34.0,95,54,19,29.81,29.64,8,1,13,0.00
2013-5-17,72.1,60.7,51.6,46.0,41.4,38.0,66,50,35,30.17,29.82,4,1,11,0.00
2013-5-18,68.9,57.9,45.1,51.0,46.2,41.0,87,67,40,30.27,30.18,4,0,9,0.00
2013-5-19,57.8,56.1,53.7,56.0,53.9,50.0,95,92,85,30.27,30.11,1,0,4,0.04
2013-5-20,82.4,66.7,56.2,67.0,60.5,55.0,96,82,58,30.12,29.88,3,0,5,0.00
2013-5-21,90.8,70.8,58.9,75.0,65.4,58.0,97,84,52,29.91,29.73,3,0,5,0.03
2013-5-22,78.3,70.0,63.4,71.0,66.5,63.0,97,89,77,29.85,29.75,4,0,8,0.02
2013-5-23,74.5,68.4,62.9,69.0,65.1,60.0,96,89,78,29.84,29.73,4,0,6,0.44
2013-5-24,65.6,53.0,42.3,65.0,50.7,41.0,97,91,78,29.99,29.67,9,1,10,0.29
2013-5-25,48.3,45.3,42.3,45.0,41.9,39.0,95,88,77,29.97,29.92,6,2,14,0.04
2013-5-26,59.3,51.7,44.8,44.0,39.9,38.0,80,65,47,30.15,29.88,14,2,15,0.00
2013-5-27,75.1,56.7,37.4,46.0,38.7,35.0,95,58,23,30.23,30.10,4,0,6,0.00
2013-5-28,67.8,55.2,43.3,55.0,46.9,40.0,92,75,40,30.24,30.14,3,0,7,0.00
2013-5-29,81.5,65.0,56.6,72.0,61.9,55.0,98,90,68,30.14,29.93,7,0,11,1.21
2013-5-30,89.8,72.9,60.6,74.0,67.5,60.0,99,85,53,30.12,30.03,2,0,4,0.00
2013-5-31,92.0,76.3,63.0,74.0,67.7,63.0,98,77,45,30.12,29.93,3,0,5,0.00
2013-6-1,91.3,76.7,63.9,73.0,67.4,61.0,92,74,51,29.98,29.84,2,0,8,0.00
2013-6-2,87.3,74.3,68.2,73.0,69.2,66.0,97,84,61,29.85,29.72,3,0,7,0.29
2013-6-3,74.7,67.2,54.5,66.0,59.3,46.0,95,77,55,29.95,29.79,2,0,4,0.02
2013-6-4,74.3,61.9,51.1,48.0,43.0,38.0,73,52,34,30.12,29.96,4,1,9,0.00
2013-6-5,72.3,61.8,48.1,54.0,46.9,40.0,84,60,37,30.23,30.09,2,0,5,0.00
2013-6-6,71.0,61.4,56.4,58.0,53.2,48.0,93,75,57,30.16,30.05,5,0,6,0.12
2013-6-7,59.2,57.3,55.6,58.0,56.1,55.0,96,96,94,30.05,29.78,1,0,4,0.86
2013-6-8,75.2,63.0,54.0,63.0,57.8,53.0,97,84,61,30.07,29.71,3,0,5,0.26
2013-6-9,77.4,64.2,53.5,64.0,57.9,52.0,96,81,54,30.18,30.06,2,0,4,0.00
2013-6-10,63.7,60.4,56.0,62.0,58.3,53.0,96,92,87,30.19,29.88,0,0,2,0.82
2013-6-11,74.2,65.1,59.3,69.0,61.5,56.0,98,89,71,29.87,29.58,3,0,9,0.35
2013-6-12,73.4,65.0,58.6,59.0,54.6,52.0,89,70,50,29.86,29.67,4,1,11,0.00
2013-6-13,58.3,56.0,53.2,57.0,54.7,51.0,97,95,90,29.84,29.66,1,0,3,1.51
2013-6-14,75.3,61.4,51.7,62.0,55.8,51.0,98,83,50,29.88,29.68,4,0,8,0.21
2013-6-15,79.9,66.6,53.7,57.0,52.6,47.0,93,65,32,30.00,29.88,3,0,6,0.00
2013-6-16,73.1,63.4,51.3,64.0,56.9,49.0,94,80,66,29.99,29.71,3,0,8,0.00
2013-6-17,84.8,67.3,56.3,68.0,61.2,54.0,97,83,40,29.92,29.79,4,0,10,0.13
2013-6-18,67.4,62.2,58.5,63.0,58.1,51.0,97,87,74,29.96,29.89,3,0,5,0.37
2013-6-19,74.5,62.5,52.4,53.0,49.7,46.0,88,66,42,30.18,29.96,4,0,4,0.00
2013-6-20,80.8,64.3,49.1,61.0,53.4,47.0,92,71,43,30.29,30.18,2,0,4,0.00
2013-6-21,82.1,68.3,55.9,69.0,62.0,54.0,95,81,58,30.28,30.19,2,0,4,0.00
2013-6-22,84.4,72.2,60.5,67.0,63.3,58.0,95,75,53,30.22,30.08,4,0,7,0.00
2013-6-23,90.8,77.9,67.7,75.0,67.3,61.0,85,71,47,30.14,29.99,5,1,7,0.00
2013-6-24,89.3,74.7,67.1,79.0,70.0,65.0,94,85,59,30.05,29.93,2,0,8,0.08
2013-6-25,89.4,74.8,63.9,76.0,68.1,62.0,96,81,54,30.00,29.77,6,0,8,0.00
2013-6-26,81.5,74.8,69.5,74.0,69.9,67.0,95,85,70,29.82,29.77,2,0,3,0.00
2013-6-27,85.7,74.6,65.8,73.0,68.9,64.0,95,83,63,29.83,29.58,2,0,6,0.13
2013-6-28,85.1,74.6,69.1,71.0,69.1,66.0,96,84,60,29.56,29.42,3,0,9,0.68
2013-6-29,84.1,73.7,66.7,70.0,66.3,65.0,94,79,56,29.69,29.49,4,0,7,0.00
2013-6-30,86.8,71.7,65.1,75.0,67.9,64.0,97,89,63,29.92,29.69,3,0,7,0.32
2013-7-1,77.0,71.6,67.9,74.0,70.1,67.0,98,95,88,30.03,29.92,1,0,5,0.28
2013-7-2,82.0,74.9,70.7,77.0,72.9,70.0,98,93,80,30.14,30.02,4,0,7,0.62
2013-7-3,86.0,77.1,71.1,76.0,72.8,70.0,97,87,70,30.21,30.13,4,0,5,0.01
2013-7-4,89.7,79.9,70.4,77.0,73.1,69.0,96,81,64,30.22,30.09,6,1,9,0.00
2013-7-5,92.1,81.6,73.3,78.0,74.0,71.0,94,79,59,30.18,30.04,3,0,9,0.00
2013-7-6,87.6,79.7,72.9,76.0,73.5,71.0,94,82,64,30.11,30.01,2,0,4,0.00
2013-7-7,88.9,77.7,71.4,79.0,73.5,69.0,95,87,71,30.06,29.91,2,0,4,0.21
2013-7-8,87.9,75.9,70.9,73.0,70.9,68.0,94,85,57,30.04,29.94,3,0,10,0.00
2013-7-9,84.9,75.8,69.6,76.0,70.6,67.0,95,84,67,30.09,29.98,3,0,4,0.00
2013-7-10,82.8,76.1,71.3,79.0,73.0,69.0,96,90,78,30.00,29.78,5,0,7,0.28
2013-7-11,83.2,75.7,69.7,73.0,67.3,60.0,95,77,47,29.97,29.76,2,0,5,0.01
2013-7-12,84.1,73.9,67.3,68.0,62.9,59.0,76,69,52,30.17,29.97,3,0,6,0.00
2013-7-13,74.6,69.8,64.5,72.0,65.9,58.0,94,87,63,30.30,30.17,2,0,3,0.10
2013-7-14,89.2,77.5,69.3,77.0,72.5,68.0,97,85,61,30.34,30.21,2,0,4,0.00
2013-7-15,92.9,80.9,72.6,75.0,71.2,68.0,96,75,44,30.25,30.14,3,0,5,0.00
2013-7-16,93.4,81.4,71.5,74.0,69.8,66.0,86,69,40,30.23,30.14,2,0,6,0.00
2013-7-17,93.7,81.4,70.9,77.0,72.6,68.0,91,76,53,30.22,30.02,2,0,6,0.00
2013-7-18,94.9,82.7,74.0,78.0,74.2,71.0,92,77,50,30.05,29.94,2,0,5,0.00
2013-7-19,97.0,83.6,72.8,79.0,74.3,70.0,94,75,50,29.96,29.73,5,0,9,0.00
2013-7-20,90.2,79.7,73.1,76.0,70.6,62.0,90,75,52,29.86,29.70,2,0,5,0.00
2013-7-21,84.9,74.3,64.6,69.0,64.9,60.0,87,73,54,29.99,29.87,3,0,3,0.00
2013-7-22,84.7,73.4,66.3,74.0,66.5,60.0,98,80,60,30.02,29.82,2,0,5,2.67
2013-7-23,83.2,74.1,68.4,76.0,71.6,68.0,99,92,71,29.80,29.57,1,0,4,1.45
2013-7-24,78.0,70.1,62.1,71.0,61.9,51.0,96,76,52,30.02,29.62,4,0,8,0.01
2013-7-25,73.4,63.9,55.7,59.0,53.7,49.0,80,70,58,30.11,30.02,2,0,5,0.00
2013-7-26,79.9,68.5,62.1,64.0,59.0,55.0,92,72,55,30.07,29.99,2,0,4,0.00
2013-7-27,84.0,69.9,57.4,68.0,62.1,55.0,94,78,51,30.06,29.94,3,0,8,0.00
2013-7-28,72.8,68.5,65.9,70.0,66.1,62.0,96,92,85,30.00,29.92,2,0,3,0.26
2013-7-29,81.4,71.5,65.6,67.0,64.8,59.0,97,81,56,30.12,29.95,2,0,8,0.00
2013-7-30,77.4,67.2,57.1,64.0,59.4,55.0,93,77,56,30.18,30.09,3,0,6,0.00
2013-7-31,80.1,68.5,57.9,65.0,60.5,55.0,93,77,53,30.18,30.03,2,0,4,0.00
2013-8-1,74.0,66.7,62.8,67.0,63.5,60.0,96,90,78,30.03,29.85,2,0,8,0.23
2013-8-2,82.7,69.4,62.3,68.0,63.7,61.0,97,84,49,29.90,29.82,4,0,6,0.20
2013-8-3,80.4,68.5,59.9,67.0,61.6,55.0,98,81,47,29.90,29.82,3,0,7,0.01
2013-8-4,76.4,65.2,56.9,67.0,56.8,51.0,95,76,46,29.97,29.85,6,0,8,0.18
2013-8-5,77.3,65.9,56.2,54.0,50.8,45.0,82,61,37,30.07,29.97,3,1,9,0.00
2013-8-6,80.2,65.1,51.6,60.0,54.7,49.0,92,72,41,30.14,30.06,3,0,8,0.00
2013-8-7,73.9,68.0,62.9,66.0,62.5,58.0,93,82,74,30.15,30.05,2,0,6,0.05
2013-8-8,82.2,73.5,67.1,73.0,69.4,65.0,97,87,72,30.04,29.97,5,1,6,0.02
2013-8-9,79.4,72.9,69.9,76.0,71.1,69.0,98,94,88,29.97,29.79,1,0,5,1.73
2013-8-10,81.0,70.3,59.9,68.0,60.8,52.0,97,75,44,30.08,29.87,3,0,9,0.00
2013-8-11,78.2,65.0,52.0,64.0,57.3,50.0,95,78,53,30.14,30.01,2,0,4,0.00
2013-8-12,80.6,69.1,58.1,68.0,61.5,56.0,93,78,53,30.05,29.91,4,0,4,0.00
2013-8-13,77.1,68.5,63.4,70.0,65.0,61.0,95,89,77,29.91,29.67,3,0,7,0.75
2013-8-14,71.7,63.2,54.9,61.0,53.4,50.0,91,72,53,30.03,29.78,5,1,10,0.00
2013-8-15,75.5,61.7,51.9,59.0,53.8,50.0,94,77,46,30.14,30.03,3,0,6,0.00
2013-8-16,77.5,64.2,54.5,63.0,57.5,53.0,94,80,52,30.21,30.14,2,0,5,0.00
2013-8-17,78.8,65.6,54.5,63.0,58.0,52.0,95,79,48,30.31,30.21,2,0,4,0.00
2013-8-18,72.2,65.0,56.8,66.0,61.0,55.0,95,87,74,30.29,30.12,1,0,2,0.00
2013-8-19,78.5,68.6,61.6,68.0,63.8,60.0,95,85,63,30.12,30.01,2,0,3,0.00
2013-8-20,83.3,70.0,60.1,71.0,64.1,58.0,97,83,60,30.14,30.05,1,0,3,0.00
2013-8-21,85.5,71.4,60.7,71.0,65.1,60.0,97,82,54,30.20,30.04,1,0,3,0.00
2013-8-22,83.8,72.8,61.1,74.0,68.0,60.0,96,85,70,30.06,29.84,3,0,6,0.00
2013-8-23,79.2,70.5,62.9,67.0,59.6,51.0,92,70,42,30.18,29.89,2,0,3,0.00
2013-8-24,78.3,64.3,52.3,58.0,54.4,50.0,92,73,45,30.35,30.18,1,0,4,0.00
2013-8-25,81.7,65.8,51.5,65.0,57.8,50.0,97,78,48,30.41,30.18,2,0,5,0.00
2013-8-26,71.6,67.5,62.1,68.0,64.0,59.0,96,88,76,30.20,29.90,1,0,6,0.35
2013-8-27,82.3,72.1,67.4,72.0,68.6,66.0,97,89,67,29.93,29.84,2,0,6,0.47
2013-8-28,86.4,71.4,63.4,74.0,67.2,62.0,96,87,59,29.92,29.82,2,0,5,0.00
2013-8-29,79.8,70.5,65.0,70.0,66.5,64.0,97,87,64,30.05,29.92,1,0,3,0.00
2013-8-30,83.4,72.8,66.9,72.0,67.7,65.0,93,84,64,30.02,29.82,1,0,4,0.00
2013-8-31,84.6,74.5,70.1,76.0,71.4,69.0,98,90,74,29.83,29.75,3,0,6,0.27
2013-9-1,82.1,73.2,67.3,75.0,70.9,67.0,98,92,78,29.87,29.80,1,0,3,0.00
2013-9-2,78.2,72.2,66.4,73.0,70.4,65.0,98,94,83,29.82,29.68,1,0,4,0.50
2013-9-3,75.2,66.7,61.9,67.0,62.8,58.0,98,88,64,29.89,29.75,3,0,5,0.00
2013-9-4,79.5,67.0,57.3,63.0,59.4,55.0,94,78,50,29.98,29.89,2,0,5,0.00
2013-9-5,72.0,63.3,54.1,61.0,52.1,41.0,95,70,34,30.20,29.90,4,0,9,0.00
2013-9-6,67.6,55.5,44.2,50.0,46.0,42.0,93,72,46,30.30,30.13,2,0,5,0.00
2013-9-7,73.9,59.7,47.5,63.0,54.6,46.0,96,84,52,30.14,29.88,3,0,5,0.00
2013-9-8,73.6,64.2,53.4,63.0,54.1,43.0,96,73,42,30.14,29.81,5,0,12,0.01
2013-9-9,70.7,57.7,43.7,55.0,48.7,41.0,92,73,52,30.27,30.11,4,0,7,0.00
2013-9-10,80.1,69.3,60.2,74.0,66.1,55.0,97,89,81,30.12,30.00,3,0,6,0.07
2013-9-11,92.7,77.3,68.5,81.0,73.1,67.0,98,88,65,30.09,29.94,10,0,12,0.19
2013-9-12,84.1,71.5,67.1,77.0,69.7,67.0,99,94,75,29.97,29.69,7,0,9,0.61
2013-9-13,71.3,64.5,55.4,67.0,58.9,47.0,98,83,65,29.89,29.64,6,1,12,0.02
2013-9-14,64.8,56.5,49.0,51.0,46.7,45.0,86,70,58,30.13,29.88,4,0,8,0.00
2013-9-15,68.4,54.8,42.9,56.0,48.6,41.0,95,81,54,30.22,30.07,2,0,6,0.00
2013-9-16,66.6,57.3,49.3,57.0,52.0,41.0,97,84,62,30.33,30.05,4,0,6,0.09
2013-9-17,63.4,51.3,41.2,47.0,42.2,38.0,91,73,48,30.49,30.33,3,0,6,0.00
2013-9-18,70.6,53.7,42.5,52.0,47.1,41.0,96,81,46,30.36,30.16,1,0,3,0.00
2013-9-19,75.0,56.8,43.5,59.0,50.3,43.0,96,82,46,30.20,30.05,2,0,5,0.00
2013-9-20,77.8,60.8,49.5,62.0,54.7,48.0,98,83,45,30.11,29.96,3,0,5,0.00
2013-9-21,73.1,64.1,54.9,65.0,59.9,54.0,97,87,71,29.99,29.63,5,0,9,0.57
2013-9-22,65.2,58.5,51.2,64.0,50.8,42.0,99,77,57,29.94,29.63,4,0,8,0.25
2013-9-23,62.6,52.3,44.5,44.0,41.6,39.0,83,68,49,30.09,29.94,5,1,12,0.00
2013-9-24,70.8,55.3,43.7,49.0,42.2,39.0,85,64,33,30.09,29.89,3,0,7,0.00